This is the latest recevied weather packets stored in our database for station/object ZB2YN-13. If no packets are shown the sender has not sent any weather packets the latest 10 day(s).
| Time | Temp. | Humidity | Pressure | Rain* | Wind** | Luminosity | Snow |
|---|---|---|---|---|---|---|---|
| 1787443205 | 22.22° C | 78% | 1008.1 hPa | 0 mm | - | - | - |
| 1787439605 | 22.78° C | 76% | 1007.8 hPa | 0 mm | - | - | - |
| 1787436006 | 22.78° C | 76% | 1007.7 hPa | 0 mm | - | - | - |
| 1787432406 | 23.89° C | 71% | 1007.7 hPa | 0 mm | - | - | - |
| 1787428805 | 24.44° C | 69% | 1006.9 hPa | 0 mm | - | - | - |
| 1787425205 | 25° C | 69% | 1006.6 hPa | 0 mm | - | - | - |
| 1787421605 | 26.67° C | 66% | 1006.2 hPa | 0 mm | - | - | - |
| 1787418006 | 27.78° C | 62% | 1006.4 hPa | 0 mm | - | - | - |
| 1787414407 | 28.33° C | 63% | 1006.5 hPa | 0 mm | - | - | - |
| 1787410805 | 28.89° C | 62% | 1006.6 hPa | 0 mm | - | - | - |
| 1787407255 | 28.33° C | 65% | 1006.8 hPa | 0 mm | - | - | - |
| 1787407205 | 28.33° C | 65% | 1006.8 hPa | 0 mm | - | - | - |
| 1787403605 | 27.78° C | 66% | 1006.9 hPa | 0 mm | - | - | - |
| 1787400006 | 27.22° C | 67% | 1007.1 hPa | 0 mm | - | - | - |
| 1787396405 | 26.67° C | 67% | 1007.3 hPa | 0 mm | - | - | - |
| 1787392805 | 25° C | 72% | 1007.5 hPa | 0 mm | - | - | - |
| 1787389205 | 24.44° C | 75% | 1007.3 hPa | 0 mm | - | - | - |
| 1787385606 | 22.78° C | 79% | 1007.4 hPa | 0 mm | - | - | - |
| 1787382006 | 21.67° C | 84% | 1007.3 hPa | 0 mm | - | - | - |
| 1787378406 | 21.11° C | 84% | 1006.5 hPa | 0 mm | - | - | - |
| 1787374805 | 20.56° C | 86% | 1005.8 hPa | 0 mm | - | - | - |
| 1787371205 | 20.56° C | 87% | 1006.1 hPa | 0 mm | - | - | - |
| 1787367605 | 20.56° C | 86% | 1006.1 hPa | 0 mm | - | - | - |
| 1787364006 | 21.11° C | 85% | 1006.1 hPa | 0 mm | - | - | - |
| 1787360405 | 21.11° C | 81% | 1006.4 hPa | 0 mm | - | - | - |
* Rain latest hour (hover to see other rain measurements)
** Current wind speed in m/s (hover to see current wind gust speed)